createdAt,value
2022-11-26T00:00:25.711Z,99.90
2022-11-26T00:02:57.114Z,99.90
2022-11-26T00:05:35.437Z,99.90
2022-11-26T00:08:17.683Z,99.90
2022-11-26T00:10:52.552Z,99.90
2022-11-26T00:13:28.671Z,99.90
2022-11-26T00:16:02.551Z,99.90
2022-11-26T00:18:33.556Z,99.90
2022-11-26T00:21:04.393Z,99.90
2022-11-26T00:23:35.333Z,99.90
2022-11-26T00:26:18.500Z,99.90
2022-11-26T00:28:53.768Z,99.90
2022-11-26T00:31:27.554Z,99.90
2022-11-26T00:33:58.587Z,99.90
2022-11-26T00:36:32.884Z,99.90
2022-11-26T00:39:12.322Z,99.90
2022-11-26T00:41:52.281Z,99.90
2022-11-26T00:44:25.775Z,99.90
2022-11-26T00:46:56.560Z,99.90
2022-11-26T00:49:34.157Z,99.90
2022-11-26T00:52:05.366Z,99.90
2022-11-26T00:54:36.993Z,99.90
2022-11-26T00:57:13.774Z,99.90
2022-11-26T00:59:44.823Z,99.90
2022-11-26T01:02:15.880Z,99.90
2022-11-26T01:04:47.992Z,99.90
2022-11-26T01:07:18.831Z,99.90
2022-11-26T01:09:50.432Z,99.90
2022-11-26T01:12:23.862Z,99.90
2022-11-26T01:14:55.178Z,99.90
2022-11-26T01:17:29.083Z,99.90
2022-11-26T01:19:59.937Z,99.90
2022-11-26T01:22:30.781Z,99.90
2022-11-26T01:25:02.722Z,99.90
2022-11-26T01:27:36.252Z,99.90
2022-11-26T01:30:19.135Z,99.90
2022-11-26T01:32:50.283Z,99.90
2022-11-26T01:35:24.541Z,99.90
2022-11-26T01:37:55.802Z,99.90
2022-11-26T01:40:41.744Z,99.90
2022-11-26T01:43:25.416Z,99.90
2022-11-26T01:45:57.097Z,99.90
2022-11-26T01:48:31.578Z,99.90
2022-11-26T01:51:07.566Z,99.90
2022-11-26T01:54:02.868Z,99.90
2022-11-26T01:56:39.022Z,99.90
2022-11-26T01:59:19.032Z,99.90
2022-11-26T02:01:54.538Z,99.90
2022-11-26T02:04:31.328Z,99.90
2022-11-26T02:07:02.994Z,99.90
2022-11-26T02:09:34.544Z,99.90
2022-11-26T02:12:08.769Z,99.90
2022-11-26T02:14:46.076Z,99.90
2022-11-26T02:17:23.445Z,99.90
2022-11-26T02:20:20.521Z,99.90
2022-11-26T02:23:12.081Z,99.90
2022-11-26T02:26:18.398Z,99.90
2022-11-26T02:29:05.847Z,99.90
2022-11-26T02:31:46.818Z,99.90
2022-11-26T02:34:22.821Z,99.90
2022-11-26T02:36:58.231Z,99.90
2022-11-26T02:39:32.146Z,99.90
2022-11-26T02:45:45.394Z,99.90
2022-11-26T02:48:24.432Z,99.90
2022-11-26T02:50:58.430Z,99.90
2022-11-26T02:53:32.079Z,99.90
2022-11-26T02:56:06.213Z,99.90
2022-11-26T02:58:38.108Z,99.90
2022-11-26T03:01:14.754Z,99.90
2022-11-26T03:03:54.016Z,99.90
2022-11-26T03:06:25.875Z,99.90
2022-11-26T03:08:57.277Z,99.90
2022-11-26T03:11:28.448Z,99.90
2022-11-26T03:13:59.255Z,99.90
2022-11-26T03:16:30.557Z,99.90
2022-11-26T03:19:04.248Z,99.90
2022-11-26T03:21:37.518Z,99.90
2022-11-26T03:24:09.428Z,99.90
2022-11-26T03:26:40.835Z,99.90
2022-11-26T03:29:11.580Z,99.90
2022-11-26T03:31:42.360Z,99.90
2022-11-26T03:34:15.686Z,99.90
2022-11-26T03:36:47.648Z,99.90
2022-11-26T03:39:18.686Z,99.90
2022-11-26T03:41:51.913Z,99.90
2022-11-26T03:44:23.646Z,99.90
2022-11-26T03:46:57.646Z,99.90
2022-11-26T03:49:30.990Z,99.90
2022-11-26T03:52:02.041Z,99.90
2022-11-26T03:54:32.810Z,99.90
2022-11-26T03:57:08.025Z,99.90
2022-11-26T03:59:38.862Z,99.90
2022-11-26T04:02:09.585Z,99.90
2022-11-26T04:04:43.000Z,99.90
2022-11-26T04:07:16.906Z,99.90
2022-11-26T04:09:48.716Z,99.90
2022-11-26T04:12:19.498Z,99.90
2022-11-26T04:14:50.496Z,99.90
2022-11-26T04:17:22.091Z,99.90
2022-11-26T04:19:55.429Z,99.90
2022-11-26T04:22:26.168Z,99.90
2022-11-26T04:24:56.899Z,99.90
2022-11-26T04:27:27.681Z,99.90
2022-11-26T04:29:58.447Z,99.90
2022-11-26T04:32:29.280Z,99.90
2022-11-26T04:35:02.576Z,99.90
2022-11-26T04:37:33.368Z,99.90
2022-11-26T04:40:04.226Z,99.90
2022-11-26T04:42:40.719Z,99.90
2022-11-26T04:45:13.222Z,99.90
2022-11-26T04:47:44.241Z,99.90
2022-11-26T04:50:17.899Z,99.90
2022-11-26T04:52:49.954Z,99.90
2022-11-26T04:55:21.770Z,99.90
2022-11-26T04:57:52.689Z,99.90
2022-11-26T05:00:24.882Z,99.90
2022-11-26T05:02:55.727Z,99.90
2022-11-26T05:05:29.108Z,99.90
2022-11-26T05:08:04.823Z,99.90
2022-11-26T05:10:37.789Z,99.90
2022-11-26T05:13:09.153Z,99.90
2022-11-26T05:15:39.980Z,99.90
2022-11-26T05:21:20.233Z,99.90
2022-11-26T05:23:51.099Z,99.90
2022-11-26T05:26:22.068Z,99.90
2022-11-26T05:28:52.842Z,99.90
2022-11-26T05:31:23.674Z,99.90
2022-11-26T05:33:55.926Z,99.90
2022-11-26T05:36:29.443Z,99.90
2022-11-26T05:39:00.136Z,99.90
2022-11-26T05:41:30.930Z,99.90
2022-11-26T05:44:01.662Z,99.90
2022-11-26T05:46:33.006Z,99.90
2022-11-26T05:49:09.174Z,99.90
2022-11-26T05:51:42.587Z,99.90
2022-11-26T05:54:17.149Z,99.90
2022-11-26T05:56:54.262Z,99.90
2022-11-26T05:59:29.671Z,99.90
2022-11-26T06:02:00.928Z,99.90
2022-11-26T06:04:31.898Z,99.90
2022-11-26T06:07:06.943Z,99.90
2022-11-26T06:09:38.544Z,99.90
2022-11-26T06:12:09.901Z,99.90
2022-11-26T06:14:43.317Z,99.90
2022-11-26T06:17:16.027Z,99.90
2022-11-26T06:19:48.449Z,99.90
2022-11-26T06:22:21.878Z,99.90
2022-11-26T06:24:54.585Z,99.90
2022-11-26T06:27:25.337Z,99.90
2022-11-26T06:29:56.149Z,99.90
2022-11-26T06:32:27.010Z,99.90
2022-11-26T06:34:57.683Z,99.90
2022-11-26T06:37:31.172Z,99.90
2022-11-26T06:40:01.979Z,99.90
2022-11-26T06:42:32.753Z,99.90
2022-11-26T06:45:05.900Z,99.90
2022-11-26T06:47:36.599Z,99.90
2022-11-26T06:50:10.834Z,99.90
2022-11-26T06:52:44.597Z,99.90
2022-11-26T06:55:17.358Z,99.90
2022-11-26T06:57:51.820Z,99.90
2022-11-26T07:00:23.926Z,99.90
2022-11-26T07:02:54.791Z,99.90
2022-11-26T07:05:25.612Z,99.90
2022-11-26T07:08:01.234Z,99.90
2022-11-26T07:10:32.029Z,99.90
2022-11-26T07:13:03.022Z,99.90
2022-11-26T07:15:33.768Z,99.90
2022-11-26T07:18:07.092Z,99.90
2022-11-26T07:20:39.437Z,99.90
2022-11-26T07:23:13.467Z,99.90
2022-11-26T07:25:44.236Z,99.90
2022-11-26T07:28:15.053Z,99.90
2022-11-26T07:30:45.848Z,99.90
2022-11-26T07:33:16.619Z,99.90
2022-11-26T07:35:47.447Z,99.90
2022-11-26T07:38:20.911Z,99.90
2022-11-26T07:40:51.725Z,99.90
2022-11-26T07:43:22.525Z,99.90
2022-11-26T07:45:55.618Z,99.90
2022-11-26T07:48:26.350Z,99.90
2022-11-26T07:51:00.338Z,99.90
2022-11-26T07:53:37.540Z,99.90
2022-11-26T07:56:08.924Z,99.90
2022-11-26T07:58:39.727Z,99.90
2022-11-26T08:01:11.936Z,99.90
2022-11-26T08:03:44.100Z,99.90
2022-11-26T08:06:17.643Z,99.90
2022-11-26T08:08:52.247Z,99.90
2022-11-26T08:11:24.910Z,99.90
2022-11-26T08:13:58.505Z,99.90
2022-11-26T08:16:29.790Z,99.90
2022-11-26T08:19:02.288Z,99.90
2022-11-26T15:51:37.286Z,51.20
2022-11-26T15:54:24.231Z,51.00
2022-11-26T15:57:06.522Z,48.20
2022-11-26T15:59:45.064Z,49.60
2022-11-26T16:02:23.816Z,50.90
2022-11-26T16:04:55.883Z,49.70
2022-11-26T16:07:31.422Z,48.80
2022-11-26T16:10:27.722Z,48.90
2022-11-26T16:13:10.275Z,49.80
2022-11-26T16:15:50.485Z,50.50
2022-11-26T16:18:24.488Z,50.20
2022-11-26T16:21:05.504Z,50.60
2022-11-26T16:23:41.510Z,50.60
2022-11-26T16:26:17.455Z,51.60
2022-11-26T16:28:49.639Z,49.60
2022-11-26T16:31:22.369Z,49.80
2022-11-26T16:33:53.130Z,50.50
2022-11-26T16:36:26.995Z,50.80
2022-11-26T16:39:00.436Z,50.20
2022-11-26T16:41:31.246Z,51.00
2022-11-26T16:44:02.402Z,50.10
2022-11-26T16:46:33.787Z,51.00
2022-11-26T16:49:04.969Z,51.00
2022-11-26T16:51:35.811Z,49.10
2022-11-26T16:54:10.105Z,49.90
2022-11-26T16:56:41.459Z,50.60
2022-11-26T16:59:20.775Z,50.70
2022-11-26T17:01:51.626Z,50.60
2022-11-26T17:04:22.687Z,49.80
2022-11-26T17:09:42.170Z,49.30
2022-11-26T17:12:19.726Z,49.30
2022-11-26T17:17:43.059Z,48.60
2022-11-26T17:20:20.032Z,49.30
2022-11-26T17:22:52.055Z,48.40
2022-11-26T17:25:25.495Z,50.70
2022-11-26T17:27:56.232Z,50.00
2022-11-26T17:30:27.482Z,50.40
2022-11-26T17:32:58.774Z,50.10
2022-11-26T17:35:31.259Z,50.90
2022-11-26T17:38:02.069Z,51.00
2022-11-26T17:40:39.115Z,52.30
2022-11-26T17:43:12.991Z,52.30
2022-11-26T17:45:44.202Z,51.50
2022-11-26T17:48:17.875Z,52.30
2022-11-26T17:53:47.413Z,52.20
2022-11-26T17:56:25.987Z,52.10
2022-11-26T17:58:57.118Z,53.10
2022-11-26T18:01:33.615Z,53.40
2022-11-26T18:04:04.646Z,53.90
2022-11-26T18:06:43.092Z,52.80
2022-11-26T18:09:13.850Z,54.70
2022-11-26T18:11:49.707Z,55.30
2022-11-26T18:14:26.297Z,54.80
2022-11-26T18:16:57.866Z,54.80
2022-11-26T18:19:29.077Z,55.90
2022-11-26T18:22:01.995Z,55.90
2022-11-26T18:24:34.782Z,56.30
2022-11-26T18:27:09.214Z,56.80
2022-11-26T18:29:40.323Z,58.40
2022-11-26T18:32:12.692Z,57.00
2022-11-26T18:34:43.625Z,58.00
2022-11-26T18:37:15.669Z,58.20
2022-11-26T18:39:46.631Z,58.60
2022-11-26T18:45:17.699Z,60.20
2022-11-26T18:47:49.039Z,60.60
2022-11-26T18:50:20.697Z,61.00
2022-11-26T18:52:52.409Z,60.20
2022-11-26T18:55:23.720Z,62.50
2022-11-26T18:57:57.491Z,61.50
2022-11-26T19:00:28.458Z,62.10
2022-11-26T19:03:01.762Z,62.60
2022-11-26T19:05:33.580Z,61.70
2022-11-26T19:08:13.325Z,63.10
2022-11-26T19:10:44.442Z,62.70
2022-11-26T19:13:18.604Z,62.10
2022-11-26T19:15:52.447Z,62.70
2022-11-26T19:18:26.124Z,64.00
2022-11-26T19:20:57.232Z,64.40
2022-11-26T19:23:30.720Z,64.50
2022-11-26T19:26:01.790Z,64.20
2022-11-26T19:28:36.225Z,64.20
2022-11-26T19:31:10.477Z,66.40
2022-11-26T19:33:42.633Z,64.90
2022-11-26T19:36:17.886Z,65.50
2022-11-26T19:38:49.063Z,66.10
2022-11-26T19:41:25.277Z,66.30
2022-11-26T19:44:00.275Z,66.30
2022-11-26T19:46:31.281Z,66.40
2022-11-26T19:49:02.152Z,67.00
2022-11-26T19:51:34.276Z,67.00
2022-11-26T19:54:08.115Z,67.70
2022-11-26T19:56:39.254Z,71.20
2022-11-26T19:59:12.564Z,71.20
2022-11-26T20:01:45.476Z,70.70
2022-11-26T20:04:19.590Z,71.30
2022-11-26T20:06:50.607Z,71.20
2022-11-26T20:09:22.936Z,69.90
2022-11-26T20:11:54.369Z,70.60
2022-11-26T20:14:27.794Z,72.00
2022-11-26T20:17:02.828Z,71.20
2022-11-26T20:19:34.986Z,72.90
2022-11-26T20:22:06.260Z,71.20
2022-11-26T20:24:37.406Z,72.50
2022-11-26T20:27:09.057Z,74.50
2022-11-26T20:29:42.529Z,74.00
2022-11-26T20:32:14.680Z,74.00
2022-11-26T20:34:48.555Z,74.70
2022-11-26T20:37:20.677Z,75.30
2022-11-26T20:39:51.421Z,77.00
2022-11-26T20:42:22.459Z,77.60
2022-11-26T20:44:55.837Z,79.50
2022-11-26T20:47:26.696Z,81.40
2022-11-26T20:49:57.485Z,80.80
2022-11-26T20:52:28.302Z,80.80
2022-11-26T20:54:59.040Z,80.80
2022-11-26T20:57:30.084Z,79.20
2022-11-26T21:00:03.530Z,77.90
2022-11-26T21:02:39.703Z,77.70
2022-11-26T21:05:11.586Z,78.70
2022-11-26T21:07:42.687Z,78.60
2022-11-26T21:10:15.860Z,77.50
2022-11-26T21:12:46.763Z,77.00
2022-11-26T21:15:23.127Z,77.40
2022-11-26T21:17:54.567Z,75.40
2022-11-26T21:20:35.953Z,78.70
2022-11-26T21:23:10.861Z,77.80
2022-11-26T21:25:42.671Z,75.40
2022-11-26T21:28:15.022Z,75.60
2022-11-26T21:30:50.458Z,76.10
2022-11-26T21:33:21.246Z,75.10
2022-11-26T21:35:52.060Z,73.60
2022-11-26T21:38:26.697Z,74.00
2022-11-26T21:40:57.670Z,72.70
2022-11-26T21:43:28.496Z,71.40
2022-11-26T21:46:04.118Z,72.80
2022-11-26T21:48:35.685Z,73.30
2022-11-26T21:51:09.122Z,73.00
2022-11-26T21:53:40.263Z,72.40
2022-11-26T21:56:13.448Z,72.40
2022-11-26T21:58:44.363Z,70.60
2022-11-26T22:01:33.354Z,70.80
2022-11-26T22:04:10.616Z,69.20
2022-11-26T22:06:41.752Z,67.90
2022-11-26T22:09:14.162Z,70.80
2022-11-26T22:11:47.036Z,69.30
2022-11-26T22:14:20.334Z,67.90
2022-11-26T22:16:54.139Z,68.80
2022-11-26T22:19:27.579Z,69.20
2022-11-26T22:21:58.365Z,68.70
2022-11-26T22:24:30.575Z,68.30
2022-11-26T22:27:01.974Z,67.40
2022-11-26T22:29:33.785Z,68.80
2022-11-26T22:32:04.634Z,65.70
2022-11-26T22:34:39.061Z,66.10
2022-11-26T22:37:09.798Z,65.30
2022-11-26T22:39:42.167Z,66.90
2022-11-26T22:42:13.924Z,65.30
2022-11-26T22:44:44.742Z,65.80
2022-11-26T22:47:15.910Z,62.70
2022-11-26T22:49:52.649Z,62.30
2022-11-26T22:52:23.518Z,61.00
2022-11-26T22:54:54.285Z,60.80
2022-11-26T22:57:25.751Z,60.90
2022-11-26T22:59:56.569Z,61.00
2022-11-26T23:02:28.714Z,60.20
2022-11-26T23:05:02.415Z,59.40
2022-11-26T23:07:33.253Z,57.70
2022-11-26T23:10:04.135Z,59.80
2022-11-26T23:12:36.889Z,58.70
2022-11-26T23:15:08.411Z,57.80
2022-11-26T23:17:42.089Z,57.80
2022-11-26T23:20:16.584Z,57.40
2022-11-26T23:22:50.394Z,57.50
2022-11-26T23:25:23.108Z,56.70
2022-11-26T23:27:53.876Z,57.50
2022-11-26T23:30:24.974Z,57.60
2022-11-26T23:32:55.710Z,56.70
2022-11-26T23:35:30.016Z,56.90
2022-11-26T23:38:00.734Z,57.30
2022-11-26T23:40:33.453Z,55.20
2022-11-26T23:43:08.443Z,57.00
2022-11-26T23:45:42.275Z,55.30
2022-11-26T23:48:13.032Z,56.80
2022-11-26T23:50:46.963Z,57.60
2022-11-26T23:53:18.779Z,55.90
2022-11-26T23:55:56.150Z,57.30
2022-11-26T23:58:28.525Z,57.10
